Time;durP1;ratioP1;P1;durP2;ratioP2;P2;SDS_P1;SDS_P2;PMS_P1;PMS_P2;Temp;Humidity;BMP_temperature;BMP_pressure;BME280_temperature;BME280_humidity;BME280_pressure;Samples;Min_cycle;Max_cycle;Signal;HPM_P1;HPM_P2
2023/10/31 00:01:45;;;;;;;3.08;1.17;;;13.90;84.90;;;;;;5094527;28;20028;-66
2023/10/31 00:04:11;;;;;;;1.33;0.73;;;13.90;84.70;;;;;;5089332;28;20345;-66
2023/10/31 00:06:37;;;;;;;1.80;0.70;;;13.80;84.70;;;;;;5090361;28;20517;-66
2023/10/31 00:09:03;;;;;;;3.75;0.90;;;13.80;84.70;;;;;;5088454;28;20107;-66
2023/10/31 00:11:28;;;;;;;2.42;1.00;;;13.80;84.50;;;;;;5087283;28;20476;-66
2023/10/31 00:13:54;;;;;;;1.58;0.75;;;13.80;84.50;;;;;;5079205;28;20028;-66
2023/10/31 00:16:20;;;;;;;1.38;0.70;;;13.70;84.40;;;;;;5087218;28;20024;-66
2023/10/31 00:18:45;;;;;;;4.20;1.10;;;13.70;84.30;;;;;;5087562;28;20016;-66
2023/10/31 00:21:11;;;;;;;2.08;0.95;;;13.60;84.20;;;;;;5088176;28;20365;-66
2023/10/31 00:23:47;;;;;;;3.63;1.10;;;13.60;84.20;;;;;;5087963;28;20449;-66
2023/10/31 00:26:14;;;;;;;3.33;1.23;;;13.50;84.20;;;;;;5088199;28;20032;-66
2023/10/31 00:28:45;;;;;;;3.25;1.38;;;13.50;84.30;;;;;;5072757;28;20052;-66
2023/10/31 00:31:11;;;;;;;2.50;1.05;;;13.50;84.30;;;;;;5095632;28;20414;-66
2023/10/31 00:33:37;;;;;;;4.05;1.33;;;13.50;84.30;;;;;;5096698;28;20395;-66
2023/10/31 00:36:04;;;;;;;1.88;1.05;;;13.50;84.20;;;;;;5072568;28;20132;-66
2023/10/31 00:38:30;;;;;;;1.98;1.08;;;13.50;84.10;;;;;;5086458;28;20039;-66
2023/10/31 00:40:55;;;;;;;3.13;1.10;;;13.50;84.10;;;;;;5073244;28;20020;-66
2023/10/31 00:43:21;;;;;;;2.38;1.00;;;13.50;84.10;;;;;;5087844;28;20032;-66
2023/10/31 00:45:47;;;;;;;3.63;1.25;;;13.50;84.10;;;;;;5070151;28;20369;-66
2023/10/31 00:48:13;;;;;;;4.35;1.35;;;13.50;84.00;;;;;;5088184;28;20032;-66
2023/10/31 00:50:38;;;;;;;2.88;1.23;;;13.50;83.90;;;;;;5076599;28;20451;-66
2023/10/31 00:53:04;;;;;;;4.82;1.38;;;13.50;83.80;;;;;;5087857;28;20106;-66
2023/10/31 00:55:30;;;;;;;4.18;1.30;;;13.40;83.80;;;;;;5088352;28;20051;-66
2023/10/31 00:57:55;;;;;;;3.65;1.23;;;13.40;83.80;;;;;;5089255;28;20036;-66
2023/10/31 01:00:21;;;;;;;5.32;1.48;;;13.40;83.80;;;;;;5088756;28;20061;-66
2023/10/31 01:02:47;;;;;;;2.72;1.10;;;13.40;83.70;;;;;;5071355;28;20023;-66
2023/10/31 01:05:13;;;;;;;5.47;1.67;;;13.40;83.70;;;;;;5088008;28;20399;-66
2023/10/31 01:07:39;;;;;;;4.32;1.60;;;13.40;83.60;;;;;;5085794;28;20086;-66
2023/10/31 01:10:05;;;;;;;4.38;1.50;;;13.30;83.70;;;;;;5087023;28;20025;-66
2023/10/31 01:12:31;;;;;;;3.42;1.50;;;13.30;83.70;;;;;;5085811;28;20405;-66
2023/10/31 01:14:57;;;;;;;4.70;1.63;;;13.20;83.70;;;;;;5086796;28;20052;-66
2023/10/31 01:17:22;;;;;;;5.75;2.25;;;13.30;83.70;;;;;;5086508;28;20036;-66
2023/10/31 01:19:48;;;;;;;4.95;2.15;;;13.20;83.70;;;;;;5086720;28;20024;-66
2023/10/31 01:22:14;;;;;;;6.00;2.47;;;13.20;83.60;;;;;;5087244;28;20444;-66
2023/10/31 01:24:40;;;;;;;7.18;2.47;;;13.20;83.70;;;;;;5088523;28;20456;-66
2023/10/31 01:27:05;;;;;;;6.90;2.67;;;13.20;83.60;;;;;;5069653;28;20449;-66
2023/10/31 01:29:31;;;;;;;6.60;2.97;;;13.30;83.60;;;;;;5087005;28;20012;-66
2023/10/31 01:31:57;;;;;;;6.38;3.13;;;13.30;83.50;;;;;;5087676;28;20131;-66
2023/10/31 01:34:23;;;;;;;9.35;3.63;;;13.30;84.10;;;;;;5086832;28;20038;-66
2023/10/31 01:36:49;;;;;;;9.18;4.20;;;13.30;83.40;;;;;;5085756;28;20035;-66
2023/10/31 01:39:14;;;;;;;9.52;4.95;;;13.30;83.50;;;;;;5085119;28;20415;-66
2023/10/31 01:41:43;;;;;;;9.30;4.93;;;13.30;83.50;;;;;;5083172;28;20111;-66
2023/10/31 01:44:10;;;;;;;11.77;5.70;;;13.30;83.50;;;;;;5084319;28;20023;-66
2023/10/31 01:46:36;;;;;;;12.65;6.95;;;13.30;83.50;;;;;;5070158;28;20425;-66
2023/10/31 01:49:02;;;;;;;9.65;5.80;;;13.30;83.50;;;;;;5086548;28;20108;-66
2023/10/31 01:51:29;;;;;;;11.20;6.63;;;13.30;83.60;;;;;;5087885;28;20372;-66
2023/10/31 01:53:55;;;;;;;10.52;6.75;;;13.30;83.60;;;;;;5086082;28;20036;-66
2023/10/31 01:56:22;;;;;;;10.68;6.38;;;13.30;83.60;;;;;;5087761;28;20039;-66
2023/10/31 01:58:49;;;;;;;13.23;6.88;;;13.30;83.50;;;;;;5084844;28;20027;-66
2023/10/31 02:01:15;;;;;;;10.88;6.30;;;13.30;83.50;;;;;;5085111;28;20448;-66
2023/10/31 02:03:41;;;;;;;13.10;6.43;;;13.30;83.50;;;;;;5103735;28;20028;-66
2023/10/31 02:06:07;;;;;;;9.93;6.28;;;13.30;83.50;;;;;;5084396;28;20113;-66
2023/10/31 02:08:33;;;;;;;13.50;7.03;;;13.30;83.60;;;;;;5085458;28;20024;-66
2023/10/31 02:10:59;;;;;;;12.43;6.65;;;13.30;83.70;;;;;;5085561;28;20570;-67
2023/10/31 02:13:25;;;;;;;11.52;7.13;;;13.30;83.70;;;;;;5070851;28;20028;-66
2023/10/31 02:15:50;;;;;;;14.02;7.18;;;13.30;83.70;;;;;;5086650;28;20028;-66
2023/10/31 02:18:16;;;;;;;13.20;7.07;;;13.30;83.70;;;;;;5095792;28;20036;-66
2023/10/31 02:20:43;;;;;;;14.32;8.02;;;13.30;83.60;;;;;;5085803;28;20020;-66
2023/10/31 02:23:08;;;;;;;14.32;8.13;;;13.30;83.60;;;;;;5086890;28;20540;-66
2023/10/31 02:25:34;;;;;;;14.52;8.05;;;13.30;83.60;;;;;;5087240;28;20149;-66
2023/10/31 02:28:00;;;;;;;13.48;7.25;;;13.40;83.70;;;;;;5086925;28;20020;-66
2023/10/31 02:30:27;;;;;;;12.98;8.00;;;13.30;84.20;;;;;;5068648;28;20353;-66
2023/10/31 02:32:53;;;;;;;11.75;7.55;;;13.40;83.60;;;;;;5084937;28;21076;-66
2023/10/31 02:35:20;;;;;;;12.82;7.28;;;13.40;83.70;;;;;;5068414;28;20122;-66
2023/10/31 02:37:46;;;;;;;12.88;7.60;;;13.30;83.60;;;;;;5085013;28;20024;-66
2023/10/31 02:40:13;;;;;;;11.68;5.60;;;13.30;83.50;;;;;;5086085;28;20448;-66
2023/10/31 02:42:39;;;;;;;9.85;6.03;;;13.40;83.60;;;;;;5087388;28;20093;-66
2023/10/31 02:45:06;;;;;;;10.02;5.60;;;13.40;83.60;;;;;;5085044;28;20384;-66
2023/10/31 02:47:32;;;;;;;11.80;5.63;;;13.40;83.60;;;;;;5083936;28;20080;-66
2023/10/31 02:49:57;;;;;;;13.85;6.47;;;13.40;83.60;;;;;;5084960;28;20111;-66
2023/10/31 02:52:23;;;;;;;13.02;7.10;;;13.40;83.50;;;;;;5084531;28;20048;-66
2023/10/31 02:54:49;;;;;;;10.60;5.57;;;13.40;83.50;;;;;;5088541;28;20023;-66
2023/10/31 02:57:16;;;;;;;11.50;6.20;;;13.40;83.50;;;;;;5087278;28;20487;-66
2023/10/31 02:59:42;;;;;;;11.65;6.55;;;13.40;83.50;;;;;;5090047;28;20036;-66
2023/10/31 03:02:08;;;;;;;12.05;6.75;;;13.40;83.50;;;;;;5072269;28;20029;-66
2023/10/31 03:04:33;;;;;;;12.20;6.97;;;13.40;83.50;;;;;;5088835;28;20056;-67
2023/10/31 03:06:59;;;;;;;13.60;7.15;;;13.40;83.50;;;;;;5089636;28;20027;-66
2023/10/31 03:09:25;;;;;;;14.30;7.97;;;13.40;83.50;;;;;;5091020;28;20024;-66
2023/10/31 03:11:51;;;;;;;12.48;6.45;;;13.40;83.60;;;;;;5074084;28;20021;-66
2023/10/31 03:14:16;;;;;;;12.55;6.88;;;13.40;83.60;;;;;;5090933;28;20042;-66
2023/10/31 03:16:42;;;;;;;12.23;7.22;;;13.40;83.60;;;;;;5089903;28;20030;-66
2023/10/31 03:19:08;;;;;;;15.65;7.03;;;13.40;83.50;;;;;;5091506;28;20040;-66
2023/10/31 03:21:34;;;;;;;10.05;6.70;;;13.40;83.60;;;;;;5087116;28;20016;-66
2023/10/31 03:23:59;;;;;;;10.20;6.25;;;13.40;83.60;;;;;;5073606;28;20089;-66
2023/10/31 03:26:25;;;;;;;11.23;7.07;;;13.40;83.60;;;;;;5090077;28;20107;-66
2023/10/31 03:28:56;;;;;;;10.73;7.03;;;13.40;83.70;;;;;;5090978;28;20021;-66
2023/10/31 03:31:23;;;;;;;10.85;6.82;;;13.40;83.70;;;;;;5089288;28;20020;-66
2023/10/31 03:33:49;;;;;;;12.70;7.40;;;13.30;83.70;;;;;;5074027;28;20042;-66
2023/10/31 03:36:15;;;;;;;14.25;8.00;;;13.40;83.80;;;;;;5073235;28;20110;-66
2023/10/31 03:38:41;;;;;;;12.05;7.97;;;13.30;83.70;;;;;;5090543;28;20556;-66
2023/10/31 03:41:07;;;;;;;12.10;8.45;;;13.30;83.80;;;;;;5082755;28;20068;-66
2023/10/31 03:43:33;;;;;;;13.65;8.50;;;13.30;83.80;;;;;;5089617;28;20036;-66
2023/10/31 03:45:59;;;;;;;14.30;7.85;;;13.30;83.90;;;;;;5089056;28;20036;-66
2023/10/31 03:48:25;;;;;;;11.77;7.60;;;13.30;83.80;;;;;;5088565;28;20023;-66
2023/10/31 03:50:52;;;;;;;14.18;8.25;;;13.30;83.90;;;;;;5087963;28;21042;-66
2023/10/31 03:53:18;;;;;;;11.88;8.02;;;13.30;83.90;;;;;;5089705;28;20097;-66
2023/10/31 03:55:44;;;;;;;10.50;7.45;;;13.30;83.80;;;;;;5089485;28;20119;-66
2023/10/31 03:58:10;;;;;;;12.43;7.35;;;13.30;83.90;;;;;;5091302;28;20107;-66
2023/10/31 04:00:38;;;;;;;11.48;7.13;;;13.30;83.80;;;;;;5105730;27;20073;-66
2023/10/31 04:03:04;;;;;;;11.13;7.55;;;13.30;83.80;;;;;;5089585;28;20480;-66
2023/10/31 04:05:30;;;;;;;10.82;6.78;;;13.30;83.90;;;;;;5088765;28;20127;-66
2023/10/31 04:07:55;;;;;;;11.40;6.78;;;13.30;83.90;;;;;;5089887;28;20050;-66
2023/10/31 04:10:21;;;;;;;9.68;6.32;;;13.30;83.90;;;;;;5087402;28;20023;-66
2023/10/31 04:12:48;;;;;;;11.55;6.50;;;13.30;84.00;;;;;;5083011;28;20026;-66
2023/10/31 04:15:14;;;;;;;9.57;5.60;;;13.30;84.00;;;;;;5089317;28;21091;-66
2023/10/31 04:17:39;;;;;;;10.68;6.60;;;13.30;84.00;;;;;;5090304;28;20032;-66
2023/10/31 04:20:06;;;;;;;8.88;5.40;;;13.30;84.00;;;;;;5089709;28;20100;-66
2023/10/31 04:22:31;;;;;;;9.88;5.72;;;13.30;84.00;;;;;;5088924;28;20028;-66
2023/10/31 04:24:57;;;;;;;9.48;5.32;;;13.30;84.00;;;;;;5087615;28;20483;-66
2023/10/31 04:27:23;;;;;;;10.32;5.43;;;13.30;83.90;;;;;;5083944;28;20171;-66
2023/10/31 04:29:49;;;;;;;9.57;4.82;;;13.30;84.00;;;;;;5087910;28;20051;-66
2023/10/31 04:32:14;;;;;;;9.40;4.60;;;13.30;84.00;;;;;;5087456;28;20461;-66
2023/10/31 04:34:40;;;;;;;8.88;4.78;;;13.20;83.90;;;;;;5087846;28;20111;-66
2023/10/31 04:37:06;;;;;;;10.05;4.32;;;13.20;83.90;;;;;;5089911;28;20039;-66
2023/10/31 04:39:32;;;;;;;7.90;3.65;;;13.30;84.00;;;;;;5087518;28;20028;-66
2023/10/31 04:41:58;;;;;;;8.05;3.80;;;13.20;84.00;;;;;;5089580;28;20089;-67
2023/10/31 04:44:23;;;;;;;7.72;3.63;;;13.20;84.00;;;;;;5088064;28;20032;-66
2023/10/31 04:46:49;;;;;;;8.57;3.42;;;13.20;84.00;;;;;;5090996;28;20057;-66
2023/10/31 04:49:15;;;;;;;7.43;3.30;;;13.20;84.10;;;;;;5089512;28;20036;-66
2023/10/31 04:51:41;;;;;;;8.40;3.67;;;13.20;84.10;;;;;;5088477;28;20039;-66
2023/10/31 04:54:07;;;;;;;7.25;3.17;;;13.20;84.00;;;;;;5086947;28;20357;-66
2023/10/31 04:56:33;;;;;;;8.07;2.88;;;13.20;84.10;;;;;;5090160;28;20121;-66
2023/10/31 04:58:58;;;;;;;7.97;3.13;;;13.10;84.00;;;;;;5088152;28;20036;-66
2023/10/31 05:01:24;;;;;;;7.38;3.20;;;13.10;84.00;;;;;;5087802;28;20035;-66
2023/10/31 05:03:50;;;;;;;8.10;3.58;;;13.20;84.10;;;;;;5088014;28;20020;-66
2023/10/31 05:06:20;;;;;;;6.72;3.30;;;13.10;84.00;;;;;;5090266;28;20040;-66
2023/10/31 05:08:46;;;;;;;8.75;3.60;;;13.20;84.00;;;;;;5091023;28;20032;-66
2023/10/31 05:11:12;;;;;;;8.88;3.78;;;13.20;84.00;;;;;;5087830;28;20031;-66
2023/10/31 05:13:39;;;;;;;8.40;4.00;;;13.20;84.10;;;;;;5088565;28;20024;-66
2023/10/31 05:16:05;;;;;;;8.15;3.78;;;13.10;84.00;;;;;;5071618;28;20434;-66
2023/10/31 05:18:31;;;;;;;8.30;3.75;;;13.10;84.10;;;;;;5087421;28;20023;-66
2023/10/31 05:20:57;;;;;;;6.20;3.38;;;13.10;84.10;;;;;;5088124;28;20362;-66
2023/10/31 05:23:22;;;;;;;11.40;4.10;;;13.10;84.10;;;;;;5086248;28;20445;-66
2023/10/31 05:25:48;;;;;;;7.55;3.65;;;13.10;84.10;;;;;;5090005;28;20028;-66
2023/10/31 05:28:14;;;;;;;7.60;3.92;;;13.10;84.10;;;;;;5085827;28;20065;-66
2023/10/31 05:30:40;;;;;;;7.63;3.97;;;13.10;84.10;;;;;;5086873;28;20031;-66
2023/10/31 05:33:05;;;;;;;9.25;4.53;;;13.10;84.00;;;;;;5085880;28;20193;-66
2023/10/31 05:35:31;;;;;;;8.70;4.70;;;13.10;84.10;;;;;;5086540;28;20471;-66
2023/10/31 05:37:57;;;;;;;9.98;4.97;;;13.10;84.10;;;;;;5064407;28;20034;-66
2023/10/31 05:40:25;;;;;;;10.35;5.28;;;13.10;84.10;;;;;;5087570;28;20035;-66
2023/10/31 05:42:50;;;;;;;9.35;4.95;;;13.10;84.10;;;;;;5085187;28;20031;-66
2023/10/31 05:45:16;;;;;;;10.45;5.63;;;13.10;84.10;;;;;;5091288;28;20020;-66
2023/10/31 05:47:42;;;;;;;9.93;5.00;;;13.10;84.20;;;;;;5094616;28;20301;-66
2023/10/31 05:50:08;;;;;;;9.43;5.53;;;13.10;84.20;;;;;;5086985;28;20085;-66
2023/10/31 05:52:34;;;;;;;10.30;5.57;;;13.10;84.20;;;;;;5085055;28;20036;-66
2023/10/31 05:55:00;;;;;;;9.57;5.18;;;13.10;84.20;;;;;;5086586;28;20439;-66
2023/10/31 05:57:25;;;;;;;10.98;5.30;;;13.10;84.20;;;;;;5085999;28;20036;-68
2023/10/31 05:59:51;;;;;;;8.95;4.70;;;13.10;84.10;;;;;;5088006;28;20031;-67
2023/10/31 06:02:17;;;;;;;9.07;4.28;;;13.10;84.10;;;;;;5087078;28;20400;-68
2023/10/31 06:04:43;;;;;;;9.75;5.03;;;13.10;84.20;;;;;;5086029;28;20135;-68
2023/10/31 06:07:10;;;;;;;7.70;4.07;;;13.10;84.20;;;;;;5087952;28;20036;-67
2023/10/31 06:09:35;;;;;;;8.73;3.80;;;13.10;84.20;;;;;;5087666;28;20028;-68
2023/10/31 06:12:01;;;;;;;7.78;3.80;;;13.00;84.00;;;;;;5088810;28;20069;-67
2023/10/31 06:14:27;;;;;;;7.53;3.45;;;13.00;83.90;;;;;;5085578;28;20056;-67
2023/10/31 06:16:53;;;;;;;6.35;3.08;;;13.00;83.90;;;;;;5086055;28;20043;-67
2023/10/31 06:19:20;;;;;;;7.10;3.08;;;13.00;83.90;;;;;;5084699;28;20028;-67
2023/10/31 06:21:46;;;;;;;7.60;3.20;;;13.00;83.90;;;;;;5084814;28;20028;-67
2023/10/31 06:24:12;;;;;;;7.88;3.03;;;12.90;83.80;;;;;;5093272;28;20028;-67
2023/10/31 06:26:39;;;;;;;6.20;2.67;;;12.90;83.90;;;;;;5085650;28;20020;-67
2023/10/31 06:29:05;;;;;;;6.03;2.95;;;12.90;83.90;;;;;;5086009;28;20037;-67
2023/10/31 06:31:30;;;;;;;7.88;2.97;;;12.90;83.80;;;;;;5094340;28;20068;-65
2023/10/31 06:33:56;;;;;;;6.03;2.70;;;12.90;83.90;;;;;;5093848;28;20028;-65
2023/10/31 06:36:22;;;;;;;6.45;2.75;;;12.90;83.90;;;;;;5088313;28;20041;-65
2023/10/31 06:38:47;;;;;;;5.90;2.63;;;12.90;83.90;;;;;;5087746;28;20051;-65
2023/10/31 06:41:13;;;;;;;5.07;2.13;;;12.90;83.80;;;;;;5079339;28;20441;-65
2023/10/31 06:43:39;;;;;;;7.00;2.35;;;12.90;83.80;;;;;;5085384;28;20032;-65
2023/10/31 06:46:05;;;;;;;4.30;2.10;;;12.80;83.70;;;;;;5083604;28;20090;-65
2023/10/31 06:48:31;;;;;;;5.53;2.47;;;12.90;83.80;;;;;;5085308;28;20384;-65
2023/10/31 06:50:57;;;;;;;5.38;2.08;;;12.80;83.70;;;;;;5097707;28;20020;-65
2023/10/31 06:53:22;;;;;;;4.70;2.08;;;12.90;83.80;;;;;;5066616;28;20040;-65
2023/10/31 06:55:48;;;;;;;6.05;2.40;;;12.90;83.80;;;;;;5088703;28;20032;-65
2023/10/31 06:58:14;;;;;;;5.78;2.42;;;12.90;83.80;;;;;;5085216;28;20052;-65
2023/10/31 07:00:40;;;;;;;7.43;3.08;;;12.90;83.80;;;;;;5061807;28;20050;-65
2023/10/31 07:03:14;;;;;;;8.13;3.58;;;12.90;83.70;;;;;;5091779;28;20028;-65
2023/10/31 07:05:40;;;;;;;9.05;3.08;;;13.00;83.80;;;;;;5086187;28;20117;-66
2023/10/31 07:08:06;;;;;;;9.38;3.92;;;13.00;83.80;;;;;;5087775;28;20028;-66
2023/10/31 07:10:33;;;;;;;8.88;4.40;;;13.00;83.80;;;;;;5101714;28;20036;-66
2023/10/31 07:12:59;;;;;;;8.82;4.50;;;13.00;83.80;;;;;;5089411;28;20024;-65
2023/10/31 07:15:26;;;;;;;8.75;4.43;;;13.00;83.70;;;;;;5081879;28;20060;-66
2023/10/31 07:17:52;;;;;;;12.30;5.47;;;13.10;83.80;;;;;;5086331;28;20021;-66
2023/10/31 07:20:18;;;;;;;11.30;5.22;;;13.10;83.70;;;;;;5085413;28;20024;-67
2023/10/31 07:22:43;;;;;;;9.98;5.63;;;13.10;83.70;;;;;;5099437;28;20029;-67
2023/10/31 07:25:09;;;;;;;10.65;5.53;;;13.10;83.60;;;;;;5092462;28;20024;-67
2023/10/31 07:27:35;;;;;;;10.10;5.28;;;13.10;83.60;;;;;;5081344;28;20025;-67
2023/10/31 07:30:03;;;;;;;9.18;5.25;;;13.10;83.60;;;;;;5083910;28;20322;-67
2023/10/31 07:32:29;;;;;;;13.73;5.78;;;13.10;83.70;;;;;;5091210;28;20020;-67
2023/10/31 07:34:55;;;;;;;10.57;6.18;;;13.20;83.70;;;;;;5087969;28;20310;-67
2023/10/31 07:37:21;;;;;;;12.05;6.72;;;13.20;83.50;;;;;;5086558;28;20028;-67
2023/10/31 07:39:47;;;;;;;10.95;6.75;;;13.20;83.50;;;;;;5080081;28;20074;-66
2023/10/31 07:42:13;;;;;;;13.40;7.47;;;13.20;83.40;;;;;;5086669;28;20032;-66
2023/10/31 07:44:38;;;;;;;11.20;7.20;;;13.20;83.50;;;;;;5085294;28;20024;-66
2023/10/31 07:47:04;;;;;;;12.32;8.07;;;13.20;83.50;;;;;;5096395;28;20115;-64
2023/10/31 07:49:30;;;;;;;13.20;7.50;;;13.20;83.40;;;;;;5095971;28;20039;-64
2023/10/31 07:51:56;;;;;;;13.98;8.00;;;13.30;83.40;;;;;;5096289;28;20028;-65
2023/10/31 07:54:22;;;;;;;12.95;8.63;;;13.20;83.40;;;;;;5097417;28;20514;-66
2023/10/31 07:56:47;;;;;;;13.63;8.52;;;13.30;83.50;;;;;;5090919;28;20085;-66
2023/10/31 07:59:13;;;;;;;14.75;8.73;;;13.30;83.50;;;;;;5090236;28;20027;-66
2023/10/31 08:01:39;;;;;;;12.60;8.43;;;13.30;83.40;;;;;;5066076;28;20357;-66
2023/10/31 08:04:05;;;;;;;14.35;9.52;;;13.40;83.40;;;;;;5090241;28;20458;-66
2023/10/31 08:06:30;;;;;;;15.13;10.05;;;13.40;83.40;;;;;;5089390;28;20518;-66
2023/10/31 08:08:56;;;;;;;13.00;8.90;;;13.40;83.30;;;;;;5088841;28;20016;-66
2023/10/31 08:11:22;;;;;;;13.60;8.80;;;13.50;83.30;;;;;;5089067;28;20016;-66
2023/10/31 08:13:48;;;;;;;14.02;9.07;;;13.50;83.20;;;;;;5090870;28;20053;-66
2023/10/31 08:16:20;;;;;;;14.52;9.38;;;13.50;83.10;;;;;;5089340;28;20036;-66
2023/10/31 08:18:46;;;;;;;15.10;9.55;;;13.60;83.20;;;;;;5090432;28;20428;-66
2023/10/31 08:21:12;;;;;;;14.32;9.65;;;13.60;83.20;;;;;;5088231;28;20039;-66
2023/10/31 08:23:38;;;;;;;13.63;9.35;;;13.60;83.10;;;;;;5090499;28;20477;-66
2023/10/31 08:26:04;;;;;;;11.85;8.32;;;13.70;83.10;;;;;;5088972;28;20056;-66
2023/10/31 08:28:30;;;;;;;15.40;9.18;;;13.70;83.00;;;;;;5090253;28;20031;-66
2023/10/31 08:30:57;;;;;;;13.20;8.63;;;13.90;82.90;;;;;;5103644;28;20024;-67
2023/10/31 08:33:23;;;;;;;12.05;8.43;;;14.00;82.80;;;;;;5111288;28;20121;-67
2023/10/31 08:35:49;;;;;;;13.82;9.13;;;14.00;82.60;;;;;;5114053;28;20459;-67
2023/10/31 08:38:14;;;;;;;11.95;7.85;;;14.10;82.70;;;;;;5111969;28;20039;-67
2023/10/31 08:40:41;;;;;;;12.18;7.80;;;14.10;82.40;;;;;;5114876;28;20031;-67
2023/10/31 08:43:07;;;;;;;12.45;8.48;;;14.10;82.40;;;;;;5116599;28;20032;-67
2023/10/31 08:45:33;;;;;;;12.38;7.28;;;14.20;82.50;;;;;;5116509;28;20475;-67
2023/10/31 08:47:59;;;;;;;10.88;6.93;;;14.20;82.40;;;;;;5107357;28;20034;-66
2023/10/31 08:50:25;;;;;;;10.75;6.65;;;14.20;82.40;;;;;;5100601;28;20035;-66
2023/10/31 08:52:51;;;;;;;11.20;6.38;;;14.20;82.40;;;;;;5094113;28;20103;-66
2023/10/31 08:55:17;;;;;;;12.00;6.30;;;14.20;82.40;;;;;;5091134;28;20112;-66
2023/10/31 08:57:43;;;;;;;9.63;5.70;;;14.20;82.30;;;;;;5091208;28;20115;-65
2023/10/31 09:00:09;;;;;;;9.77;5.70;;;14.30;82.30;;;;;;5087330;28;20127;-65
2023/10/31 09:02:35;;;;;;;9.35;5.20;;;14.20;82.20;;;;;;5090558;28;20020;-65
2023/10/31 09:05:01;;;;;;;9.70;5.20;;;14.20;82.20;;;;;;5093372;28;20369;-65
2023/10/31 09:07:27;;;;;;;10.98;5.05;;;14.30;82.20;;;;;;5095578;28;20028;-65
2023/10/31 09:09:53;;;;;;;12.80;6.10;;;14.30;82.20;;;;;;5094039;28;20040;-65
2023/10/31 09:12:19;;;;;;;11.82;5.43;;;14.40;82.10;;;;;;5093985;28;20055;-65
2023/10/31 09:14:46;;;;;;;10.60;5.93;;;14.50;82.00;;;;;;5092137;28;20082;-65
2023/10/31 09:17:12;;;;;;;12.35;5.65;;;14.60;81.90;;;;;;5074480;28;20082;-65
2023/10/31 09:19:38;;;;;;;10.43;5.47;;;14.70;81.70;;;;;;5080281;28;20036;-65
2023/10/31 09:22:04;;;;;;;11.32;5.57;;;14.70;81.60;;;;;;5075010;28;20104;-65
2023/10/31 09:24:29;;;;;;;10.75;5.57;;;14.70;81.50;;;;;;5073910;28;20464;-65
2023/10/31 09:26:55;;;;;;;10.43;5.63;;;14.80;81.50;;;;;;5075030;28;20070;-65
2023/10/31 09:29:21;;;;;;;10.85;5.25;;;14.80;81.40;;;;;;5076025;28;20449;-65
2023/10/31 09:31:47;;;;;;;8.90;4.63;;;14.80;81.40;;;;;;5078179;28;20028;-65
2023/10/31 09:34:13;;;;;;;10.00;5.22;;;14.90;81.40;;;;;;5084388;28;20108;-65
2023/10/31 09:36:39;;;;;;;10.73;5.40;;;14.90;81.40;;;;;;5074278;28;20045;-65
2023/10/31 09:39:05;;;;;;;8.38;4.50;;;14.80;81.30;;;;;;5074152;28;20036;-65
2023/10/31 09:41:34;;;;;;;9.93;5.63;;;14.80;81.40;;;;;;5077617;28;20044;-65
2023/10/31 09:44:00;;;;;;;10.02;4.45;;;14.80;81.50;;;;;;5083352;28;20028;-65
2023/10/31 09:46:30;;;;;;;9.88;4.85;;;14.70;81.50;;;;;;5092735;28;20043;-65
2023/10/31 09:48:56;;;;;;;8.55;4.72;;;14.80;81.60;;;;;;5092067;28;20020;-65
2023/10/31 09:51:22;;;;;;;9.68;4.97;;;14.80;81.50;;;;;;5091065;28;20028;-65
2023/10/31 09:53:49;;;;;;;10.10;5.60;;;15.00;81.40;;;;;;5093967;28;20024;-65
2023/10/31 09:56:16;;;;;;;9.20;5.18;;;15.30;80.80;;;;;;5107015;28;20112;-65
2023/10/31 09:58:41;;;;;;;8.93;5.38;;;15.60;80.20;;;;;;5110865;28;20035;-65
2023/10/31 10:01:08;;;;;;;11.93;5.90;;;15.90;79.80;;;;;;5093682;28;20042;-65
2023/10/31 10:03:34;;;;;;;12.13;5.90;;;16.20;79.20;;;;;;5099513;28;20139;-65
2023/10/31 10:06:02;;;;;;;14.48;6.72;;;16.40;78.70;;;;;;5102622;28;20060;-65
2023/10/31 10:08:27;;;;;;;10.00;6.13;;;16.50;78.20;;;;;;5106357;28;20030;-65
2023/10/31 10:10:54;;;;;;;9.32;6.00;;;16.70;78.00;;;;;;5095561;28;20469;-65
2023/10/31 10:13:21;;;;;;;11.70;6.68;;;16.80;77.70;;;;;;5099735;28;20043;-65
2023/10/31 10:15:54;;;;;;;10.13;6.53;;;16.90;77.50;;;;;;5084111;28;20063;-65
2023/10/31 10:18:40;;;;;;;9.75;6.10;;;17.10;77.30;;;;;;5074924;28;20086;-65
2023/10/31 10:21:06;;;;;;;13.20;6.60;;;17.10;76.90;;;;;;5090984;28;20042;-65
2023/10/31 10:23:33;;;;;;;11.57;6.30;;;16.90;76.90;;;;;;5088398;28;20039;-65
2023/10/31 10:26:00;;;;;;;12.10;7.15;;;16.80;77.10;;;;;;5081240;28;20105;-65
2023/10/31 10:28:26;;;;;;;10.63;6.53;;;16.70;77.30;;;;;;5072680;28;20013;-66
2023/10/31 10:30:53;;;;;;;10.65;5.82;;;16.70;77.30;;;;;;5081798;28;20025;-66
2023/10/31 10:33:20;;;;;;;10.85;7.20;;;16.80;77.30;;;;;;5087483;28;20035;-65
2023/10/31 10:35:46;;;;;;;10.25;6.22;;;16.90;77.10;;;;;;5086849;28;20107;-66
2023/10/31 10:38:14;;;;;;;10.20;6.43;;;16.90;77.10;;;;;;5091439;28;20028;-65
2023/10/31 10:40:49;;;;;;;10.98;6.75;;;16.80;77.00;;;;;;5087347;28;20077;-65
2023/10/31 10:43:22;;;;;;;10.75;6.32;;;16.90;76.80;;;;;;5093215;28;20035;-65
2023/10/31 10:45:55;;;;;;;10.07;6.63;;;16.90;76.70;;;;;;5092344;28;20024;-65
2023/10/31 10:48:21;;;;;;;10.88;6.00;;;16.80;76.70;;;;;;5092546;28;20024;-65
2023/10/31 10:50:55;;;;;;;8.38;5.25;;;16.70;76.70;;;;;;5093840;28;20462;-65
2023/10/31 10:53:28;;;;;;;9.30;5.65;;;16.60;76.80;;;;;;5092602;28;20431;-65
2023/10/31 10:56:03;;;;;;;9.82;5.22;;;16.50;77.00;;;;;;5091767;28;20032;-65
2023/10/31 10:58:49;;;;;;;7.40;4.43;;;16.30;77.00;;;;;;5093448;28;20097;-65
2023/10/31 11:01:18;;;;;;;10.82;4.68;;;16.10;77.10;;;;;;5074942;28;20043;-65
2023/10/31 11:03:45;;;;;;;10.10;4.68;;;16.00;77.40;;;;;;5089460;28;20032;-65
2023/10/31 11:06:12;;;;;;;9.55;4.40;;;15.90;77.50;;;;;;5091214;28;20059;-66
2023/10/31 11:08:39;;;;;;;7.82;4.57;;;15.80;77.70;;;;;;5076850;28;20071;-65
2023/10/31 11:11:05;;;;;;;9.77;5.45;;;15.80;77.80;;;;;;5092297;28;20085;-65
2023/10/31 11:13:31;;;;;;;9.43;4.47;;;15.70;77.60;;;;;;5092933;28;20114;-66
2023/10/31 11:16:04;;;;;;;8.85;5.20;;;15.70;77.70;;;;;;5094131;28;20143;-65
2023/10/31 11:18:30;;;;;;;9.38;5.43;;;15.60;77.80;;;;;;5086983;28;20028;-65
2023/10/31 11:20:56;;;;;;;8.23;4.72;;;15.60;78.00;;;;;;5084639;28;20460;-65
2023/10/31 11:23:21;;;;;;;11.90;5.10;;;15.50;78.10;;;;;;5086663;28;20031;-65
2023/10/31 11:25:53;;;;;;;10.45;5.45;;;15.50;78.30;;;;;;5089327;28;20035;-65
2023/10/31 11:28:19;;;;;;;10.80;5.72;;;15.40;78.50;;;;;;5086739;28;20093;-66
2023/10/31 11:30:56;;;;;;;11.15;7.13;;;15.40;78.60;;;;;;5073356;28;20031;-65
2023/10/31 11:33:24;;;;;;;15.57;7.78;;;15.30;78.70;;;;;;5095814;28;20032;-65
2023/10/31 11:35:51;;;;;;;14.82;8.90;;;15.30;78.80;;;;;;5090328;28;20103;-65
2023/10/31 11:38:27;;;;;;;12.68;9.02;;;15.30;78.90;;;;;;5095156;28;20024;-65
2023/10/31 11:41:04;;;;;;;13.57;10.63;;;15.40;78.90;;;;;;5086463;28;20020;-65
2023/10/31 11:43:39;;;;;;;17.80;11.10;;;15.40;78.80;;;;;;5085338;28;20028;-65
2023/10/31 11:46:05;;;;;;;18.42;12.02;;;15.50;78.80;;;;;;5087607;28;20029;-65
2023/10/31 11:48:51;;;;;;;15.90;11.82;;;15.60;78.60;;;;;;5089461;28;20021;-65
2023/10/31 11:51:17;;;;;;;15.00;11.02;;;15.70;78.40;;;;;;5091183;28;20021;-65
2023/10/31 11:53:44;;;;;;;14.93;10.80;;;15.80;78.10;;;;;;5089105;28;20020;-65
2023/10/31 11:56:19;;;;;;;15.63;11.73;;;16.00;77.90;;;;;;5071413;28;20028;-65
2023/10/31 11:58:54;;;;;;;15.82;12.32;;;16.10;77.60;;;;;;5089181;28;20394;-65
2023/10/31 12:01:19;;;;;;;16.10;11.80;;;16.10;77.60;;;;;;5089169;28;20032;-65
2023/10/31 12:03:49;;;;;;;18.23;13.32;;;16.10;77.60;;;;;;5088156;28;20137;-65
2023/10/31 12:06:15;;;;;;;19.83;12.95;;;16.10;77.60;;;;;;5087208;28;20051;-65
2023/10/31 12:08:43;;;;;;;18.48;13.57;;;16.10;77.50;;;;;;5090696;28;20107;-65
2023/10/31 12:11:10;;;;;;;18.98;13.38;;;16.10;77.50;;;;;;5086824;28;20032;-66
2023/10/31 12:13:41;;;;;;;18.40;12.35;;;16.10;77.30;;;;;;5087859;28;20379;-65
2023/10/31 12:16:09;;;;;;;17.95;11.85;;;16.00;77.20;;;;;;5087226;28;20016;-65
2023/10/31 12:18:36;;;;;;;18.55;11.68;;;16.00;77.30;;;;;;5086364;28;20103;-66
2023/10/31 12:21:02;;;;;;;18.00;12.10;;;15.90;77.20;;;;;;5086840;28;20341;-66
2023/10/31 12:23:28;;;;;;;17.17;12.00;;;15.90;77.30;;;;;;5090327;28;20096;-66
2023/10/31 12:25:54;;;;;;;19.33;11.35;;;15.90;77.40;;;;;;5084230;28;20020;-66
2023/10/31 12:28:24;;;;;;;20.13;12.20;;;15.90;78.00;;;;;;5087892;28;20024;-66
2023/10/31 12:30:57;;;;;;;19.15;12.25;;;15.90;77.20;;;;;;5086097;28;20445;-65
2023/10/31 12:33:26;;;;;;;20.83;12.85;;;15.80;77.20;;;;;;5079501;28;20032;-66
2023/10/31 12:36:00;;;;;;;17.63;11.43;;;15.70;77.20;;;;;;5077564;28;20153;-66
2023/10/31 12:38:27;;;;;;;19.67;12.20;;;15.60;77.20;;;;;;5083210;28;20369;-65